createdAt,value
2018-11-04T00:00:18.977Z,1.20
2018-11-04T00:02:47.862Z,1.20
2018-11-04T00:05:16.674Z,1.40
2018-11-04T00:07:46.378Z,1.40
2018-11-04T00:10:15.141Z,1.40
2018-11-04T00:12:43.651Z,1.70
2018-11-04T00:15:12.340Z,1.80
2018-11-04T00:17:40.945Z,1.80
2018-11-04T00:20:12.142Z,1.90
2018-11-04T00:22:40.308Z,1.90
2018-11-04T00:25:12.020Z,2.00
2018-11-04T00:27:40.683Z,2.20
2018-11-04T00:30:11.886Z,2.20
2018-11-04T00:32:41.304Z,2.40
2018-11-04T00:35:11.384Z,2.50
2018-11-04T00:37:40.681Z,2.50
2018-11-04T00:40:10.223Z,2.50
2018-11-04T00:42:39.727Z,2.60
2018-11-04T00:45:09.740Z,2.60
2018-11-04T00:47:39.653Z,2.60
2018-11-04T00:50:13.515Z,2.60
2018-11-04T00:52:43.057Z,2.60
2018-11-04T00:55:13.011Z,2.60
2018-11-04T00:57:43.382Z,2.50
2018-11-04T01:00:15.118Z,2.50
2018-11-04T01:02:44.795Z,2.40
2018-11-04T01:05:14.723Z,2.40
2018-11-04T01:07:43.018Z,2.40
2018-11-04T01:10:11.853Z,2.40
2018-11-04T01:12:40.644Z,2.40
2018-11-04T01:15:10.113Z,2.40
2018-11-04T01:17:38.465Z,2.50
2018-11-04T01:20:08.665Z,2.70
2018-11-04T01:22:36.906Z,2.80
2018-11-04T01:25:05.324Z,2.80
2018-11-04T01:27:33.536Z,2.70
2018-11-04T01:30:01.727Z,2.70
2018-11-04T01:32:30.075Z,2.80
2018-11-04T01:34:58.317Z,2.90
2018-11-04T01:37:26.560Z,3.10
2018-11-04T01:39:54.795Z,3.10
2018-11-04T01:42:23.011Z,3.10
2018-11-04T01:44:51.370Z,3.00
2018-11-04T01:47:19.618Z,3.00
2018-11-04T01:49:47.898Z,3.00
2018-11-04T01:52:16.225Z,3.20
2018-11-04T01:54:44.468Z,3.20
2018-11-04T01:57:12.826Z,3.30
2018-11-04T01:59:41.166Z,3.40
2018-11-04T02:02:09.357Z,3.50
2018-11-04T02:04:37.685Z,3.60
2018-11-04T02:07:05.956Z,3.70
2018-11-04T02:09:34.230Z,3.80
2018-11-04T02:12:02.526Z,3.80
2018-11-04T02:14:30.738Z,3.90
2018-11-04T02:16:59.001Z,3.90
2018-11-04T02:19:27.229Z,3.90
2018-11-04T02:21:55.520Z,4.00
2018-11-04T02:24:23.667Z,4.00
2018-11-04T02:26:51.798Z,4.10
2018-11-04T02:29:20.055Z,4.00
2018-11-04T02:31:48.229Z,4.00
2018-11-04T02:34:16.384Z,4.00
2018-11-04T02:36:44.571Z,4.00
2018-11-04T02:39:12.756Z,4.00
2018-11-04T02:41:40.879Z,4.00
2018-11-04T02:44:09.021Z,4.00
2018-11-04T02:46:37.187Z,4.00
2018-11-04T02:49:05.380Z,4.00
2018-11-04T02:51:33.573Z,4.00
2018-11-04T02:54:01.790Z,3.90
2018-11-04T02:56:29.984Z,3.80
2018-11-04T02:58:58.215Z,3.90
2018-11-04T03:01:26.336Z,3.90
2018-11-04T03:03:54.496Z,3.90
2018-11-04T03:06:23.057Z,3.80
2018-11-04T03:08:51.809Z,3.70
2018-11-04T03:11:20.288Z,3.70
2018-11-04T03:13:48.783Z,3.70
2018-11-04T03:16:17.206Z,3.60
2018-11-04T03:18:45.607Z,3.60
2018-11-04T03:21:14.134Z,3.50
2018-11-04T03:23:42.581Z,3.50
2018-11-04T03:26:10.956Z,3.40
2018-11-04T03:28:39.504Z,3.40
2018-11-04T03:31:07.965Z,3.30
2018-11-04T03:33:36.467Z,3.30
2018-11-04T03:36:05.142Z,3.30
2018-11-04T03:38:33.641Z,3.30
2018-11-04T03:41:02.028Z,3.40
2018-11-04T03:43:30.539Z,3.50
2018-11-04T03:45:59.276Z,3.60
2018-11-04T03:48:28.026Z,3.70
2018-11-04T03:50:56.512Z,3.80
2018-11-04T03:53:25.180Z,3.90
2018-11-04T03:55:55.171Z,3.90
2018-11-04T03:58:23.625Z,4.00
2018-11-04T04:00:52.336Z,4.00
2018-11-04T04:03:20.941Z,4.10
2018-11-04T04:05:49.473Z,4.20
2018-11-04T04:08:17.917Z,4.20
2018-11-04T04:10:46.445Z,4.10
2018-11-04T04:13:15.132Z,4.10
2018-11-04T04:15:43.426Z,4.10
2018-11-04T04:18:11.583Z,4.20
2018-11-04T04:20:39.735Z,4.20
2018-11-04T04:23:07.917Z,4.10
2018-11-04T04:25:36.146Z,4.10
2018-11-04T04:28:04.418Z,4.10
2018-11-04T04:30:32.603Z,4.20
2018-11-04T04:33:00.739Z,4.20
2018-11-04T04:35:28.950Z,4.30
2018-11-04T04:37:57.189Z,4.30
2018-11-04T04:40:25.366Z,4.30
2018-11-04T04:42:53.526Z,4.40
2018-11-04T04:45:21.725Z,4.40
2018-11-04T04:47:49.895Z,4.40
2018-11-04T04:50:18.068Z,4.40
2018-11-04T04:52:46.222Z,4.50
2018-11-04T04:55:14.444Z,4.50
2018-11-04T04:57:42.657Z,4.50
2018-11-04T05:00:10.871Z,4.40
2018-11-04T05:02:39.085Z,4.30
2018-11-04T05:05:07.310Z,4.40
2018-11-04T05:07:35.500Z,4.40
2018-11-04T05:10:04.005Z,4.30
2018-11-04T05:12:32.246Z,4.20
2018-11-04T05:15:00.454Z,4.30
2018-11-04T05:17:28.657Z,4.20
2018-11-04T05:19:56.839Z,4.10
2018-11-04T05:22:24.967Z,4.10
2018-11-04T05:24:53.130Z,4.00
2018-11-04T05:27:21.325Z,3.90
2018-11-04T05:29:49.486Z,4.00
2018-11-04T05:32:17.669Z,3.90
2018-11-04T05:34:46.003Z,3.70
2018-11-04T05:37:14.331Z,3.50
2018-11-04T05:39:42.726Z,3.40
2018-11-04T05:42:13.542Z,3.30
2018-11-04T05:44:41.909Z,3.30
2018-11-04T05:47:10.077Z,3.20
2018-11-04T05:49:38.208Z,3.10
2018-11-04T05:52:07.772Z,2.90
2018-11-04T05:54:36.155Z,2.90
2018-11-04T05:57:04.682Z,2.80
2018-11-04T05:59:33.090Z,2.80
2018-11-04T06:02:01.569Z,2.80
2018-11-04T06:04:29.980Z,2.70
2018-11-04T06:06:58.325Z,2.60
2018-11-04T06:09:26.738Z,2.60
2018-11-04T06:11:55.114Z,2.80
2018-11-04T06:14:23.478Z,2.70
2018-11-04T06:16:51.836Z,2.70
2018-11-04T06:19:20.312Z,2.60
2018-11-04T06:21:48.741Z,2.50
2018-11-04T06:24:17.081Z,2.70
2018-11-04T06:26:45.388Z,2.50
2018-11-04T06:29:13.719Z,2.30
2018-11-04T06:31:43.334Z,2.20
2018-11-04T06:34:11.711Z,2.10
2018-11-04T06:36:40.137Z,2.00
2018-11-04T06:39:09.066Z,2.00
2018-11-04T06:41:37.454Z,2.00
2018-11-04T06:44:08.713Z,2.30
2018-11-04T06:46:36.851Z,2.50
2018-11-04T06:49:05.271Z,2.70
2018-11-04T06:51:33.509Z,2.60
2018-11-04T06:54:01.755Z,2.60
2018-11-04T06:56:29.952Z,2.80
2018-11-04T06:58:58.233Z,2.90
2018-11-04T07:01:26.477Z,3.10
2018-11-04T07:04:05.842Z,3.00
2018-11-04T07:06:34.086Z,2.90
2018-11-04T07:09:03.425Z,2.90
2018-11-04T07:11:31.513Z,2.80
2018-11-04T07:13:59.700Z,2.80
2018-11-04T07:16:27.937Z,2.80
2018-11-04T07:18:56.106Z,2.80
2018-11-04T07:21:24.301Z,2.70
2018-11-04T07:23:52.533Z,2.80
2018-11-04T07:26:20.787Z,2.80
2018-11-04T07:28:52.358Z,2.80
2018-11-04T07:31:21.642Z,2.80
2018-11-04T07:33:50.010Z,2.90
2018-11-04T07:36:18.741Z,3.00
2018-11-04T07:38:47.985Z,3.10
2018-11-04T07:41:17.390Z,3.10
2018-11-04T07:43:46.359Z,3.30
2018-11-04T07:46:15.038Z,3.30
2018-11-04T07:48:44.529Z,3.40
2018-11-04T07:51:12.780Z,3.80
2018-11-04T07:53:41.000Z,4.00
2018-11-04T07:56:09.585Z,4.30
2018-11-04T07:58:37.769Z,4.40
2018-11-04T08:01:06.191Z,4.50
2018-11-04T08:03:34.776Z,4.70
2018-11-04T08:06:03.363Z,4.80
2018-11-04T08:08:32.225Z,4.90
2018-11-04T08:11:00.888Z,5.00
2018-11-04T08:13:31.384Z,5.20
2018-11-04T08:16:00.235Z,5.30
2018-11-04T08:18:29.457Z,5.40
2018-11-04T08:20:58.047Z,5.50
2018-11-04T08:23:26.516Z,5.70
2018-11-04T08:25:54.882Z,5.90
2018-11-04T08:28:23.140Z,6.20
2018-11-04T08:30:51.475Z,6.60
2018-11-04T08:33:19.778Z,7.00
2018-11-04T08:35:48.074Z,7.30
2018-11-04T08:38:16.263Z,7.60
2018-11-04T08:40:44.538Z,7.80
2018-11-04T08:43:12.754Z,8.00
2018-11-04T08:45:41.058Z,8.10
2018-11-04T08:48:09.338Z,8.20
2018-11-04T08:50:37.585Z,8.10
2018-11-04T08:53:05.983Z,8.20
2018-11-04T08:55:34.218Z,8.50
2018-11-04T08:58:02.503Z,8.80
2018-11-04T09:00:30.738Z,9.00
2018-11-04T09:02:59.127Z,9.10
2018-11-04T09:05:27.382Z,9.10
2018-11-04T09:07:55.579Z,9.10
2018-11-04T09:10:23.885Z,9.20
2018-11-04T09:12:52.089Z,9.30
2018-11-04T09:15:20.343Z,9.10
2018-11-04T09:18:00.314Z,9.20
2018-11-04T09:20:28.703Z,9.30
2018-11-04T09:22:57.085Z,9.40
2018-11-04T09:25:26.721Z,9.20
2018-11-04T09:27:57.546Z,9.30
2018-11-04T09:30:25.904Z,9.40
2018-11-04T09:32:54.253Z,9.50
2018-11-04T09:35:22.686Z,9.70
2018-11-04T09:37:51.011Z,9.90
2018-11-04T09:40:19.459Z,10.10
2018-11-04T09:42:47.718Z,10.40
2018-11-04T09:45:16.079Z,10.80
2018-11-04T09:47:44.479Z,11.00
2018-11-04T09:50:12.897Z,10.90
2018-11-04T09:52:41.316Z,10.90
2018-11-04T09:55:10.990Z,11.10
2018-11-04T09:57:39.255Z,11.00
2018-11-04T10:00:11.206Z,11.40
2018-11-04T10:02:39.574Z,11.70
2018-11-04T10:05:08.999Z,12.00
2018-11-04T10:07:37.489Z,12.20
2018-11-04T10:10:08.673Z,12.40
2018-11-04T10:12:36.891Z,12.50
2018-11-04T10:15:06.432Z,12.70
2018-11-04T10:17:34.687Z,12.80
2018-11-04T10:20:03.379Z,12.90
2018-11-04T10:22:31.353Z,12.90
2018-11-04T10:24:59.567Z,12.80
2018-11-04T10:27:27.885Z,12.80
2018-11-04T10:29:56.180Z,12.80
2018-11-04T10:32:24.381Z,13.30
2018-11-04T10:34:52.720Z,13.30
2018-11-04T10:37:21.224Z,13.50
2018-11-04T10:39:49.476Z,13.60
2018-11-04T10:42:18.517Z,13.60
2018-11-04T10:44:46.858Z,13.70
2018-11-04T10:47:15.568Z,13.80
2018-11-04T10:49:43.945Z,14.00
2018-11-04T10:52:12.169Z,14.10
2018-11-04T10:54:40.651Z,14.10
2018-11-04T10:57:09.140Z,14.00
2018-11-04T10:59:38.411Z,13.70
2018-11-04T11:02:06.629Z,13.90
2018-11-04T11:04:34.956Z,14.20
2018-11-04T11:07:03.228Z,14.60
2018-11-04T11:09:34.150Z,14.70
2018-11-04T11:12:02.411Z,14.80
2018-11-04T11:14:30.678Z,14.60
2018-11-04T11:16:59.358Z,14.80
2018-11-04T11:19:27.750Z,15.00
2018-11-04T11:21:55.986Z,14.80
2018-11-04T11:24:24.295Z,15.00
2018-11-04T11:26:52.633Z,15.00
2018-11-04T11:29:20.905Z,14.70
2018-11-04T11:31:49.151Z,14.70
2018-11-04T11:34:17.492Z,14.80
2018-11-04T11:36:45.845Z,15.00
2018-11-04T11:39:14.572Z,15.00
2018-11-04T11:41:43.380Z,15.00
2018-11-04T11:44:11.656Z,14.90
2018-11-04T11:46:40.144Z,14.40
2018-11-04T11:49:08.623Z,14.30
2018-11-04T11:51:36.880Z,14.60
2018-11-04T11:54:05.525Z,15.00
2018-11-04T11:56:33.957Z,15.00
2018-11-04T11:59:02.543Z,14.80
2018-11-04T12:01:30.914Z,14.10
2018-11-04T12:03:59.199Z,14.10
2018-11-04T12:06:28.488Z,13.90
2018-11-04T12:08:56.722Z,14.00
2018-11-04T12:14:20.609Z,14.20
2018-11-04T12:16:48.859Z,14.20
2018-11-04T12:19:17.145Z,13.70
2018-11-04T12:21:45.409Z,13.60
2018-11-04T12:24:13.704Z,13.70
2018-11-04T12:26:44.450Z,13.80
2018-11-04T12:29:12.679Z,13.80
2018-11-04T12:31:40.986Z,13.80
2018-11-04T12:34:10.486Z,13.70
2018-11-04T12:36:38.740Z,13.70
2018-11-04T12:39:08.667Z,13.90
2018-11-04T12:41:36.919Z,14.00
2018-11-04T12:44:05.287Z,13.70
2018-11-04T12:46:33.636Z,13.60
2018-11-04T12:49:01.955Z,13.60
2018-11-04T12:51:30.210Z,13.90
2018-11-04T12:53:58.544Z,14.40
2018-11-04T12:56:26.793Z,14.70
2018-11-04T12:58:55.089Z,14.90
2018-11-04T13:01:23.442Z,14.60
2018-11-04T13:03:51.720Z,14.80
2018-11-04T13:06:20.014Z,15.00
2018-11-04T13:08:48.273Z,14.70
2018-11-04T13:11:16.532Z,14.70
2018-11-04T13:13:44.915Z,14.80
2018-11-04T13:16:13.280Z,14.30
2018-11-04T13:18:41.980Z,13.70
2018-11-04T13:21:10.459Z,13.70
2018-11-04T13:23:39.880Z,13.70
2018-11-04T13:26:08.227Z,13.90
2018-11-04T13:28:36.557Z,14.20
2018-11-04T13:31:04.833Z,14.30
2018-11-04T13:33:33.238Z,14.40
2018-11-04T13:36:01.712Z,14.40
2018-11-04T13:38:30.034Z,14.60
2018-11-04T13:40:58.372Z,14.70
2018-11-04T13:43:26.651Z,14.90
2018-11-04T13:45:54.887Z,14.80
2018-11-04T13:48:23.091Z,14.60
2018-11-04T13:50:51.359Z,14.60
2018-11-04T13:53:19.650Z,14.30
2018-11-04T13:55:47.965Z,14.40
2018-11-04T13:58:16.275Z,14.50
2018-11-04T14:00:44.554Z,14.40
2018-11-04T14:03:12.898Z,14.40
2018-11-04T14:05:41.189Z,14.30
2018-11-04T14:08:09.453Z,14.10
2018-11-04T14:10:37.795Z,13.90
2018-11-04T14:13:06.078Z,14.00
2018-11-04T14:15:34.338Z,14.00
2018-11-04T14:18:02.617Z,14.00
2018-11-04T14:20:30.863Z,13.90
2018-11-04T14:22:59.160Z,13.70
2018-11-04T14:25:27.486Z,13.70
2018-11-04T14:27:55.866Z,13.60
2018-11-04T14:30:24.143Z,13.50
2018-11-04T14:32:53.389Z,13.50
2018-11-04T14:35:21.663Z,13.30
2018-11-04T14:37:49.888Z,13.30
2018-11-04T14:40:18.191Z,13.30
2018-11-04T14:42:46.436Z,13.30
2018-11-04T14:45:14.640Z,13.00
2018-11-04T14:47:42.946Z,12.70
2018-11-04T14:50:14.204Z,12.50
2018-11-04T14:52:42.459Z,12.40
2018-11-04T14:55:10.747Z,12.20
2018-11-04T14:57:38.973Z,12.10
2018-11-04T15:00:10.438Z,12.00
2018-11-04T15:02:38.916Z,11.90
2018-11-04T15:05:08.094Z,11.80
2018-11-04T15:07:41.246Z,11.70
2018-11-04T15:10:11.839Z,11.60
2018-11-04T15:12:40.400Z,11.60
2018-11-04T15:15:10.936Z,11.50
2018-11-04T15:17:39.544Z,11.40
2018-11-04T15:20:08.525Z,11.30
2018-11-04T15:22:40.749Z,11.20
2018-11-04T15:25:10.163Z,11.10
2018-11-04T15:27:38.606Z,11.00
2018-11-04T15:30:07.903Z,11.00
2018-11-04T15:32:37.323Z,10.90
2018-11-04T15:35:05.763Z,10.80
2018-11-04T15:37:34.281Z,10.80
2018-11-04T15:40:02.680Z,10.70
2018-11-04T15:42:31.178Z,10.50
2018-11-04T15:44:59.549Z,10.40
2018-11-04T15:47:27.865Z,10.20
2018-11-04T15:49:56.325Z,10.10
2018-11-04T15:52:24.522Z,10.00
2018-11-04T15:54:52.860Z,9.90
2018-11-04T15:57:21.678Z,9.90
2018-11-04T15:59:51.750Z,9.90
2018-11-04T16:02:25.310Z,9.80
2018-11-04T16:05:04.848Z,9.70
2018-11-04T16:08:17.911Z,9.50
2018-11-04T16:11:00.277Z,9.40
2018-11-04T16:13:29.224Z,9.50
2018-11-04T16:16:00.442Z,9.50
2018-11-04T16:18:30.801Z,9.30
2018-11-04T16:21:14.011Z,9.30
2018-11-04T16:23:44.012Z,9.20
2018-11-04T16:26:12.534Z,9.30
2018-11-04T16:28:42.407Z,9.30
2018-11-04T16:31:47.515Z,9.30
2018-11-04T16:34:17.679Z,9.30
2018-11-04T16:36:55.392Z,9.30
2018-11-04T16:39:25.195Z,9.20
2018-11-04T16:41:56.855Z,9.10
2018-11-04T16:44:28.469Z,9.10
2018-11-04T16:47:00.190Z,8.90
2018-11-04T16:49:29.594Z,8.70
2018-11-04T16:52:00.976Z,8.60
2018-11-04T16:57:43.371Z,8.40
2018-11-04T17:00:11.999Z,8.30
2018-11-04T17:02:40.446Z,8.20
2018-11-04T17:05:09.994Z,8.30
2018-11-04T17:07:38.504Z,8.50
2018-11-04T17:10:07.243Z,8.60
2018-11-04T17:12:35.561Z,8.50
2018-11-04T17:15:04.662Z,8.40
2018-11-04T17:17:32.960Z,8.50
2018-11-04T17:20:02.616Z,8.50
2018-11-04T17:22:30.844Z,8.40
2018-11-04T17:25:01.605Z,8.40
2018-11-04T17:27:29.933Z,8.40
2018-11-04T17:29:58.224Z,8.40
2018-11-04T17:32:26.510Z,8.20
2018-11-04T17:34:54.818Z,8.20
2018-11-04T17:37:23.052Z,8.30
2018-11-04T17:39:51.285Z,8.40
2018-11-04T17:42:19.473Z,8.40
2018-11-04T17:44:47.786Z,8.70
2018-11-04T17:47:15.974Z,8.90
2018-11-04T17:49:44.158Z,8.80
2018-11-04T17:52:12.412Z,8.80
2018-11-04T17:54:40.889Z,8.90
2018-11-04T17:57:09.250Z,8.90
2018-11-04T17:59:37.416Z,8.90
2018-11-04T18:02:06.045Z,8.90
2018-11-04T18:04:34.337Z,8.90
2018-11-04T18:07:03.996Z,8.80
2018-11-04T18:09:32.209Z,8.80
2018-11-04T18:12:01.447Z,8.90
2018-11-04T18:14:29.812Z,9.00
2018-11-04T18:16:58.226Z,8.90
2018-11-04T18:19:26.516Z,8.80
2018-11-04T18:21:54.724Z,8.80
2018-11-04T18:24:23.129Z,8.90
2018-11-04T18:26:51.532Z,9.00
2018-11-04T18:29:19.698Z,9.00
2018-11-04T18:31:48.035Z,9.00
2018-11-04T18:34:16.271Z,9.00
2018-11-04T18:36:44.635Z,8.90
2018-11-04T18:39:12.909Z,8.90
2018-11-04T18:41:41.124Z,8.70
2018-11-04T18:44:09.434Z,8.60
2018-11-04T18:46:37.652Z,8.50
2018-11-04T18:49:07.033Z,8.40
2018-11-04T18:51:35.817Z,8.40
2018-11-04T18:54:04.337Z,8.40
2018-11-04T18:56:34.501Z,8.40
2018-11-04T18:59:03.455Z,8.20
2018-11-04T19:01:32.330Z,8.20
2018-11-04T19:04:00.792Z,8.10
2018-11-04T19:06:29.005Z,8.00
2018-11-04T19:08:57.398Z,8.20
2018-11-04T19:11:25.753Z,8.20
2018-11-04T19:13:54.087Z,8.30
2018-11-04T19:16:22.418Z,8.30
2018-11-04T19:18:50.708Z,8.20
2018-11-04T19:21:18.848Z,8.00
2018-11-04T19:23:47.079Z,7.90
2018-11-04T19:26:16.489Z,7.80
2018-11-04T19:28:46.095Z,7.80
2018-11-04T19:31:14.372Z,7.50
2018-11-04T19:33:43.590Z,7.40
2018-11-04T19:36:11.830Z,7.20
2018-11-04T19:38:40.184Z,7.30
2018-11-04T19:41:08.384Z,7.30
2018-11-04T19:43:37.616Z,7.10
2018-11-04T19:46:05.849Z,7.00
2018-11-04T19:48:35.164Z,6.90
2018-11-04T19:51:03.535Z,6.90
2018-11-04T19:53:36.239Z,6.80
2018-11-04T19:56:06.106Z,7.00
2018-11-04T19:58:34.565Z,7.30
2018-11-04T20:01:02.807Z,7.60
2018-11-04T20:03:31.121Z,7.70
2018-11-04T20:05:59.464Z,7.80
2018-11-04T20:08:27.690Z,7.70
2018-11-04T20:10:56.049Z,7.80
2018-11-04T20:13:29.787Z,7.80
2018-11-04T20:15:58.015Z,7.80
2018-11-04T20:18:31.723Z,7.60
2018-11-04T20:20:59.957Z,7.40
2018-11-04T20:23:29.164Z,7.20
2018-11-04T20:26:00.743Z,7.20
2018-11-04T20:28:29.103Z,7.20
2018-11-04T20:30:57.297Z,7.20
2018-11-04T20:33:25.617Z,7.30
2018-11-04T20:35:53.961Z,7.40
2018-11-04T20:38:27.676Z,7.60
2018-11-04T20:41:01.295Z,7.70
2018-11-04T20:43:29.606Z,7.60
2018-11-04T20:45:57.846Z,7.60
2018-11-04T20:48:31.585Z,7.60
2018-11-04T20:51:03.957Z,7.60
2018-11-04T20:53:32.345Z,7.60
2018-11-04T20:56:06.070Z,7.70
2018-11-04T20:58:35.325Z,7.60
2018-11-04T21:01:03.526Z,7.50
2018-11-04T21:03:31.830Z,7.50
2018-11-04T21:06:00.157Z,7.60
2018-11-04T21:08:30.021Z,7.60
2018-11-04T21:10:58.320Z,7.60
2018-11-04T21:13:27.079Z,7.60
2018-11-04T21:15:55.436Z,7.70
2018-11-04T21:18:23.677Z,7.70
2018-11-04T21:20:51.914Z,7.70
2018-11-04T21:23:20.280Z,7.70
2018-11-04T21:25:48.573Z,7.70
2018-11-04T21:28:16.908Z,7.70
2018-11-04T21:30:45.015Z,7.60
2018-11-04T21:33:13.257Z,7.50
2018-11-04T21:35:41.604Z,7.50
2018-11-04T21:38:09.859Z,7.50
2018-11-04T21:40:38.134Z,7.60
2018-11-04T21:43:06.695Z,7.50
2018-11-04T21:45:34.880Z,7.50
2018-11-04T21:48:03.146Z,7.50
2018-11-04T21:50:31.457Z,7.40
2018-11-04T21:52:59.849Z,7.40
2018-11-04T21:55:28.393Z,7.20
2018-11-04T21:57:56.512Z,7.20
2018-11-04T22:00:24.898Z,7.20
2018-11-04T22:02:53.640Z,7.10
2018-11-04T22:05:21.780Z,7.10
2018-11-04T22:07:50.137Z,7.10
2018-11-04T22:10:18.488Z,7.10
2018-11-04T22:12:46.833Z,7.00
2018-11-04T22:15:15.156Z,7.10
2018-11-04T22:17:43.479Z,7.00
2018-11-04T22:20:12.606Z,7.00
2018-11-04T22:22:40.838Z,6.90
2018-11-04T22:25:09.972Z,6.80
2018-11-04T22:27:38.253Z,6.80
2018-11-04T22:30:08.787Z,6.90
2018-11-04T22:32:37.271Z,6.70
2018-11-04T22:35:06.024Z,6.60
2018-11-04T22:37:34.299Z,6.50
2018-11-04T22:40:02.537Z,6.50
2018-11-04T22:42:30.722Z,6.60
2018-11-04T22:44:58.962Z,6.60
2018-11-04T22:47:27.180Z,6.70
2018-11-04T22:49:56.441Z,6.80
2018-11-04T22:52:24.621Z,6.90
2018-11-04T22:54:52.817Z,6.90
2018-11-04T22:57:21.040Z,7.10
2018-11-04T22:59:49.248Z,7.10
2018-11-04T23:02:17.471Z,7.00
2018-11-04T23:04:51.166Z,7.10
2018-11-04T23:07:19.371Z,7.00
2018-11-04T23:09:47.618Z,7.10
2018-11-04T23:12:15.780Z,7.10
2018-11-04T23:14:43.933Z,7.10
2018-11-04T23:17:12.102Z,7.10
2018-11-04T23:19:40.326Z,7.10
2018-11-04T23:22:08.502Z,7.20
2018-11-04T23:24:36.800Z,7.10
2018-11-04T23:27:05.280Z,7.10
2018-11-04T23:29:33.416Z,7.10
2018-11-04T23:32:01.691Z,6.90
2018-11-04T23:34:29.941Z,7.00
2018-11-04T23:36:58.072Z,6.90
2018-11-04T23:39:26.287Z,7.00
2018-11-04T23:41:54.460Z,7.00
2018-11-04T23:44:22.637Z,7.10
2018-11-04T23:46:50.841Z,7.10
2018-11-04T23:49:18.965Z,7.20
2018-11-04T23:51:47.174Z,7.30
2018-11-04T23:54:15.412Z,7.20
2018-11-04T23:56:43.605Z,7.20
2018-11-04T23:59:11.860Z,7.20
